createdAt,value
2022-09-07T00:00:18.969Z,57.30
2022-09-07T00:02:52.239Z,57.20
2022-09-07T00:05:25.481Z,56.22
2022-09-07T00:07:59.630Z,57.33
2022-09-07T00:10:32.697Z,56.81
2022-09-07T00:13:06.319Z,56.83
2022-09-07T00:15:40.611Z,57.50
2022-09-07T00:18:08.480Z,56.99
2022-09-07T00:20:39.047Z,58.14
2022-09-07T00:23:09.235Z,57.46
2022-09-07T00:25:42.529Z,56.94
2022-09-07T00:28:12.364Z,58.46
2022-09-07T00:30:43.167Z,58.34
2022-09-07T00:33:16.723Z,58.10
2022-09-07T00:35:46.709Z,57.68
2022-09-07T00:38:19.990Z,58.59
2022-09-07T00:40:54.019Z,58.59
2022-09-07T00:43:38.340Z,58.24
2022-09-07T00:46:09.819Z,57.79
2022-09-07T00:48:46.261Z,57.85
2022-09-07T00:51:25.488Z,58.61
2022-09-07T00:54:02.226Z,58.66
2022-09-07T00:56:34.759Z,58.11
2022-09-07T00:59:05.629Z,57.78
2022-09-07T01:01:38.315Z,58.57
2022-09-07T01:04:06.640Z,58.34
2022-09-07T01:06:37.729Z,58.71
2022-09-07T01:09:11.458Z,58.86
2022-09-07T01:11:51.176Z,58.46
2022-09-07T01:14:29.300Z,59.60
2022-09-07T01:17:03.900Z,60.67
2022-09-07T01:19:51.621Z,60.07
2022-09-07T01:22:48.826Z,60.23
2022-09-07T01:25:37.370Z,60.51
2022-09-07T01:28:07.546Z,60.65
2022-09-07T01:30:37.649Z,60.57
2022-09-07T01:33:24.074Z,60.43
2022-09-07T01:36:01.376Z,59.68
2022-09-07T01:38:36.524Z,60.96
2022-09-07T01:41:13.708Z,60.36
2022-09-07T01:43:50.644Z,60.44
2022-09-07T01:46:41.422Z,60.59
2022-09-07T01:49:20.656Z,61.14
2022-09-07T01:51:58.962Z,61.29
2022-09-07T01:54:31.097Z,61.32
2022-09-07T01:57:03.528Z,61.63
2022-09-07T01:59:35.576Z,61.62
2022-09-07T02:02:08.916Z,61.37
2022-09-07T02:04:55.439Z,61.18
2022-09-07T02:07:31.279Z,61.91
2022-09-07T02:10:04.749Z,62.39
2022-09-07T02:13:04.673Z,61.92
2022-09-07T02:15:40.693Z,62.90
2022-09-07T02:18:14.130Z,62.82
2022-09-07T02:20:47.778Z,62.32
2022-09-07T02:23:28.639Z,62.24
2022-09-07T02:26:00.279Z,61.97
2022-09-07T02:28:32.777Z,62.33
2022-09-07T02:31:03.400Z,65.41
2022-09-07T02:33:33.632Z,66.97
2022-09-07T02:36:04.690Z,66.49
2022-09-07T02:38:35.417Z,65.66
2022-09-07T02:41:06.168Z,64.32
2022-09-07T02:43:39.413Z,63.60
2022-09-07T02:46:13.588Z,63.17
2022-09-07T02:48:46.606Z,63.40
2022-09-07T02:51:27.430Z,62.97
2022-09-07T02:54:08.812Z,64.28
2022-09-07T02:56:55.791Z,64.47
2022-09-07T02:59:35.444Z,64.51
2022-09-07T03:02:24.399Z,64.49
2022-09-07T03:05:13.099Z,65.37
2022-09-07T03:07:55.013Z,63.79
2022-09-07T03:10:27.493Z,63.00
2022-09-07T03:13:00.001Z,64.55
2022-09-07T03:15:32.469Z,63.82
2022-09-07T03:18:04.894Z,63.47
2022-09-07T03:20:32.517Z,64.26
2022-09-07T03:23:05.518Z,64.03
2022-09-07T03:25:33.598Z,64.43
2022-09-07T03:28:04.790Z,63.56
2022-09-07T03:30:35.719Z,63.59
2022-09-07T03:33:06.487Z,64.15
2022-09-07T03:35:37.049Z,63.79
2022-09-07T03:38:10.080Z,63.87
2022-09-07T03:40:38.107Z,63.79
2022-09-07T03:43:11.003Z,63.27
2022-09-07T03:45:38.795Z,63.75
2022-09-07T03:48:12.437Z,64.17
2022-09-07T03:50:42.883Z,63.98
2022-09-07T03:53:15.753Z,64.59
2022-09-07T03:55:48.830Z,64.49
2022-09-07T03:58:21.775Z,63.89
2022-09-07T04:00:57.124Z,63.41
2022-09-07T04:03:27.651Z,65.50
2022-09-07T04:05:57.427Z,65.58
2022-09-07T04:08:29.149Z,65.15
2022-09-07T04:11:02.136Z,64.84
2022-09-07T04:13:30.291Z,66.88
2022-09-07T04:16:05.222Z,66.50
2022-09-07T04:18:47.461Z,66.27
2022-09-07T04:21:17.278Z,65.78
2022-09-07T04:23:48.133Z,66.73
2022-09-07T04:26:24.583Z,67.20
2022-09-07T04:28:55.075Z,66.97
2022-09-07T04:31:28.269Z,66.95
2022-09-07T04:33:59.246Z,67.40
2022-09-07T04:36:27.092Z,66.81
2022-09-07T04:38:59.728Z,66.45
2022-09-07T04:41:30.471Z,66.48
2022-09-07T04:43:59.641Z,66.09
2022-09-07T04:46:30.533Z,66.33
2022-09-07T04:49:04.071Z,65.98
2022-09-07T04:51:35.066Z,65.99
2022-09-07T04:54:04.482Z,65.87
2022-09-07T04:56:37.307Z,66.03
2022-09-07T04:59:07.610Z,66.12
2022-09-07T05:01:41.120Z,66.04
2022-09-07T05:04:11.487Z,66.10
2022-09-07T05:06:42.075Z,66.19
2022-09-07T05:09:13.170Z,65.91
2022-09-07T05:11:43.888Z,66.45
2022-09-07T05:14:20.945Z,67.47
2022-09-07T05:16:51.602Z,67.44
2022-09-07T05:19:21.835Z,66.96
2022-09-07T05:21:59.224Z,66.80
2022-09-07T05:24:32.248Z,66.86
2022-09-07T05:27:03.175Z,66.45
2022-09-07T05:32:31.428Z,67.13
2022-09-07T05:35:04.427Z,66.30
2022-09-07T05:37:37.504Z,66.75
2022-09-07T05:40:10.112Z,66.19
2022-09-07T05:42:43.872Z,66.12
2022-09-07T05:45:16.496Z,66.02
2022-09-07T05:47:50.774Z,66.32
2022-09-07T05:50:20.980Z,65.58
2022-09-07T05:52:51.015Z,65.64
2022-09-07T05:55:29.794Z,65.99
2022-09-07T05:58:05.676Z,66.01
2022-09-07T06:00:38.002Z,65.85
2022-09-07T06:03:11.739Z,66.74
2022-09-07T06:05:42.856Z,67.35
2022-09-07T06:08:13.569Z,66.46
2022-09-07T06:10:44.929Z,65.90
2022-09-07T06:13:18.286Z,65.87
2022-09-07T06:15:48.343Z,66.01
2022-09-07T06:18:16.034Z,66.16
2022-09-07T06:20:46.549Z,66.83
2022-09-07T06:23:19.398Z,66.32
2022-09-07T06:25:50.119Z,67.14
2022-09-07T06:28:21.023Z,66.45
2022-09-07T06:30:51.215Z,66.10
2022-09-07T06:33:21.987Z,64.84
2022-09-07T06:36:03.112Z,65.99
2022-09-07T06:38:37.028Z,65.59
2022-09-07T06:44:11.610Z,65.69
2022-09-07T06:49:32.018Z,64.79
2022-09-07T06:52:02.375Z,64.58
2022-09-07T06:57:27.731Z,63.73
2022-09-07T07:00:02.997Z,63.87
2022-09-07T07:02:33.136Z,63.34
2022-09-07T07:05:00.350Z,63.48
2022-09-07T07:07:36.020Z,63.28
2022-09-07T07:10:06.188Z,62.69
2022-09-07T07:15:09.331Z,61.71
2022-09-07T07:17:43.502Z,62.35
2022-09-07T07:20:20.663Z,63.23
2022-09-07T07:22:55.815Z,65.93
2022-09-07T07:25:29.058Z,66.07
2022-09-07T07:31:00.491Z,65.87
2022-09-07T07:33:35.078Z,65.72
2022-09-07T07:36:15.377Z,65.81
2022-09-07T07:39:02.579Z,65.59
2022-09-07T07:41:55.252Z,65.21
2022-09-07T07:44:32.419Z,65.17
2022-09-07T07:47:03.442Z,63.23
2022-09-07T07:49:35.149Z,62.51
2022-09-07T07:55:43.018Z,61.45
2022-09-07T07:57:56.912Z,60.45
2022-09-07T08:03:07.351Z,59.33
2022-09-07T08:05:46.440Z,58.15
2022-09-07T08:08:15.580Z,57.80
2022-09-07T08:10:47.939Z,55.85
2022-09-07T08:13:20.772Z,55.16
2022-09-07T08:15:55.818Z,54.79
2022-09-07T08:18:29.055Z,54.53
2022-09-07T08:21:01.675Z,52.47
2022-09-07T08:23:38.776Z,53.72
2022-09-07T08:26:06.684Z,52.55
2022-09-07T08:28:40.065Z,53.00
2022-09-07T08:31:10.625Z,51.50
2022-09-07T08:33:38.925Z,53.60
2022-09-07T08:36:16.521Z,53.58
2022-09-07T08:38:47.492Z,55.68
2022-09-07T08:41:21.754Z,54.55
2022-09-07T08:44:04.195Z,54.43
2022-09-07T08:46:45.366Z,57.67
2022-09-07T08:49:22.397Z,56.52
2022-09-07T08:52:03.938Z,56.78
2022-09-07T08:54:33.044Z,56.22
2022-09-07T09:00:10.751Z,56.05
2022-09-07T09:03:28.750Z,54.83
2022-09-07T09:05:48.659Z,54.84
2022-09-07T09:08:24.968Z,54.65
2022-09-07T09:11:01.780Z,51.85
2022-09-07T09:13:41.315Z,52.53
2022-09-07T09:16:11.826Z,52.97
2022-09-07T09:18:50.306Z,54.13
2022-09-07T09:21:27.285Z,53.68
2022-09-07T09:24:01.022Z,54.23
2022-09-07T09:26:33.330Z,53.77
2022-09-07T09:29:14.345Z,52.18
2022-09-07T09:31:46.802Z,53.55
2022-09-07T09:34:24.034Z,54.08
2022-09-07T09:36:56.800Z,51.11
2022-09-07T09:39:24.432Z,50.62
2022-09-07T09:41:53.350Z,50.60
2022-09-07T09:44:21.280Z,51.48
2022-09-07T09:49:47.894Z,51.51
2022-09-07T09:52:30.158Z,51.56
2022-09-07T09:55:33.736Z,53.00
2022-09-07T10:04:09.564Z,50.88
2022-09-07T10:06:53.187Z,52.69
2022-09-07T10:09:37.123Z,54.29
2022-09-07T10:12:13.819Z,51.47
2022-09-07T10:14:45.486Z,50.19
2022-09-07T10:17:17.362Z,48.82
2022-09-07T10:19:45.114Z,48.04
2022-09-07T10:22:31.103Z,49.62
2022-09-07T10:25:01.001Z,49.45
2022-09-07T10:27:32.135Z,52.07
2022-09-07T10:30:17.913Z,51.27
2022-09-07T10:33:26.180Z,50.78
2022-09-07T10:35:59.065Z,50.02
2022-09-07T10:38:26.894Z,46.31
2022-09-07T10:40:59.313Z,47.40
2022-09-07T10:43:37.559Z,48.40
2022-09-07T10:46:10.601Z,49.83
2022-09-07T10:48:50.432Z,50.56
2022-09-07T10:51:19.083Z,50.70
2022-09-07T10:57:07.948Z,47.66
2022-09-07T11:02:28.329Z,46.40
2022-09-07T11:05:21.542Z,49.34
2022-09-07T11:07:58.048Z,47.40
2022-09-07T11:10:31.725Z,49.99
2022-09-07T11:13:07.074Z,49.27
2022-09-07T11:15:45.212Z,49.92
2022-09-07T11:18:15.524Z,50.07
2022-09-07T11:20:50.895Z,49.56
2022-09-07T11:23:23.899Z,49.94
2022-09-07T11:25:58.899Z,47.60
2022-09-07T11:28:29.322Z,48.00
2022-09-07T11:31:31.188Z,46.92
2022-09-07T11:34:30.106Z,46.37
2022-09-07T11:37:00.393Z,46.89
2022-09-07T11:39:35.474Z,47.00
2022-09-07T11:45:07.295Z,45.58
2022-09-07T11:47:40.005Z,47.70
2022-09-07T11:50:17.359Z,47.07
2022-09-07T11:53:13.434Z,46.47
2022-09-07T11:55:48.278Z,47.61
2022-09-07T11:58:41.858Z,48.82
2022-09-07T12:01:32.444Z,49.43
2022-09-07T12:04:13.294Z,51.54
2022-09-07T12:06:58.278Z,48.81
2022-09-07T12:09:37.454Z,48.49
2022-09-07T12:12:23.556Z,48.12
2022-09-07T12:14:54.320Z,47.61
2022-09-07T12:17:30.270Z,47.72
2022-09-07T12:20:12.387Z,45.59
2022-09-07T12:23:02.174Z,46.76
2022-09-07T12:25:33.524Z,45.79
2022-09-07T12:28:03.383Z,45.24
2022-09-07T12:30:33.502Z,46.24
2022-09-07T12:33:16.385Z,46.31
2022-09-07T12:35:50.223Z,46.94
2022-09-07T12:38:38.842Z,47.29
2022-09-07T12:41:26.724Z,47.29
2022-09-07T12:44:07.253Z,46.20
2022-09-07T12:46:35.510Z,46.53
2022-09-07T12:49:21.204Z,45.68
2022-09-07T12:52:15.388Z,46.79
2022-09-07T12:55:16.536Z,47.15
2022-09-07T12:57:52.256Z,49.82
2022-09-07T13:00:23.352Z,44.47
2022-09-07T13:03:01.986Z,45.46
2022-09-07T13:05:35.606Z,45.96
2022-09-07T13:08:09.444Z,42.99
2022-09-07T13:10:37.813Z,41.53
2022-09-07T13:13:09.136Z,43.09
2022-09-07T13:15:45.963Z,42.01
2022-09-07T13:18:20.483Z,42.18
2022-09-07T13:20:53.650Z,41.41
2022-09-07T13:23:29.110Z,40.03
2022-09-07T13:26:00.709Z,42.26
2022-09-07T13:28:34.148Z,42.73
2022-09-07T13:31:22.039Z,42.78
2022-09-07T13:33:55.037Z,43.04
2022-09-07T13:36:41.531Z,41.99
2022-09-07T13:39:16.290Z,43.17
2022-09-07T13:41:49.678Z,42.58
2022-09-07T13:44:26.125Z,43.15
2022-09-07T13:47:06.361Z,44.61
2022-09-07T13:49:44.103Z,43.23
2022-09-07T13:52:19.683Z,45.01
2022-09-07T13:55:05.818Z,46.21
2022-09-07T13:57:39.576Z,47.33
2022-09-07T14:00:21.114Z,47.03
2022-09-07T14:02:56.504Z,45.02
2022-09-07T14:05:26.624Z,45.78
2022-09-07T14:07:57.490Z,48.70
2022-09-07T14:10:28.400Z,46.32
2022-09-07T14:13:03.776Z,49.14
2022-09-07T14:15:40.859Z,48.68
2022-09-07T14:18:21.378Z,49.82
2022-09-07T14:20:50.220Z,50.85
2022-09-07T14:23:25.536Z,52.08
2022-09-07T14:26:19.197Z,50.34
2022-09-07T14:28:51.372Z,52.20
2022-09-07T14:31:20.057Z,51.38
2022-09-07T14:33:54.609Z,52.03
2022-09-07T14:36:43.992Z,52.71
2022-09-07T14:39:15.653Z,53.10
2022-09-07T14:41:48.770Z,50.82
2022-09-07T14:44:36.832Z,53.77
2022-09-07T14:47:13.227Z,51.59
2022-09-07T14:49:46.445Z,52.30
2022-09-07T14:52:18.812Z,51.11
2022-09-07T14:54:51.683Z,52.33
2022-09-07T14:57:19.572Z,51.16
2022-09-07T14:59:49.608Z,53.31
2022-09-07T15:02:22.427Z,51.99
2022-09-07T15:04:58.612Z,52.79
2022-09-07T15:07:58.046Z,52.83
2022-09-07T15:10:30.918Z,52.21
2022-09-07T15:13:20.625Z,53.47
2022-09-07T15:16:08.653Z,51.80
2022-09-07T15:18:54.337Z,51.90
2022-09-07T15:21:40.001Z,52.43
2022-09-07T15:24:12.301Z,54.95
2022-09-07T15:27:04.500Z,51.52
2022-09-07T15:29:39.879Z,53.19
2022-09-07T15:32:11.751Z,51.87
2022-09-07T15:34:42.461Z,52.30
2022-09-07T15:40:06.644Z,51.60
2022-09-07T15:45:31.708Z,53.27
2022-09-07T15:48:02.305Z,52.61
2022-09-07T15:50:32.761Z,52.42
2022-09-07T15:54:06.570Z,53.54
2022-09-07T15:56:03.166Z,53.29
2022-09-07T15:58:31.301Z,52.34
2022-09-07T16:04:04.562Z,52.98
2022-09-07T16:06:38.070Z,53.70
2022-09-07T16:09:08.184Z,52.52
2022-09-07T16:11:41.653Z,53.60
2022-09-07T16:14:13.633Z,53.88
2022-09-07T16:19:40.914Z,54.53
2022-09-07T16:25:25.961Z,55.24
2022-09-07T16:28:00.578Z,55.99
2022-09-07T16:30:29.002Z,55.83
2022-09-07T16:32:59.213Z,55.43
2022-09-07T16:35:32.211Z,54.88
2022-09-07T16:40:53.940Z,54.61
2022-09-07T16:43:26.604Z,55.98
2022-09-07T16:46:15.572Z,55.66
2022-09-07T16:48:47.938Z,55.88
2022-09-07T16:51:25.391Z,56.37
2022-09-07T16:53:56.460Z,55.82
2022-09-07T16:56:27.702Z,56.21
2022-09-07T16:59:00.828Z,55.39
2022-09-07T17:01:31.280Z,56.24
2022-09-07T17:04:04.464Z,55.66
2022-09-07T17:06:44.599Z,55.45
2022-09-07T17:09:15.334Z,55.65
2022-09-07T17:11:48.668Z,55.70
2022-09-07T17:14:18.706Z,56.33
2022-09-07T17:16:48.824Z,55.82
2022-09-07T17:19:29.710Z,56.26
2022-09-07T17:22:01.710Z,57.25
2022-09-07T17:24:32.818Z,57.97
2022-09-07T17:27:03.822Z,58.95
2022-09-07T17:29:40.623Z,59.81
2022-09-07T17:32:26.333Z,59.49
2022-09-07T17:35:02.517Z,60.35
2022-09-07T17:37:34.614Z,60.19
2022-09-07T17:40:06.475Z,60.77
2022-09-07T17:45:28.030Z,61.95
2022-09-07T17:47:58.305Z,61.99
2022-09-07T17:50:34.438Z,62.81
2022-09-07T17:53:07.083Z,62.38
2022-09-07T17:55:40.804Z,63.03
2022-09-07T17:58:13.684Z,62.73
2022-09-07T18:00:46.151Z,62.91
2022-09-07T18:03:16.480Z,63.20
2022-09-07T18:05:48.751Z,63.47
2022-09-07T18:08:19.031Z,63.13
2022-09-07T18:13:48.468Z,63.30
2022-09-07T18:16:18.217Z,64.26
2022-09-07T18:18:49.136Z,64.03
2022-09-07T18:21:25.179Z,64.30
2022-09-07T18:23:57.010Z,63.76
2022-09-07T18:26:27.346Z,64.06
2022-09-07T18:29:13.032Z,63.72
2022-09-07T18:31:54.760Z,64.83
2022-09-07T18:34:25.420Z,65.60
2022-09-07T18:36:58.359Z,66.53
2022-09-07T18:39:29.343Z,67.24
2022-09-07T18:42:00.674Z,68.20
2022-09-07T18:47:32.298Z,67.91
2022-09-07T18:50:05.265Z,68.57
2022-09-07T18:53:04.207Z,69.12
2022-09-07T18:55:34.054Z,69.45
2022-09-07T18:58:09.794Z,69.66
2022-09-07T19:00:37.673Z,69.92
2022-09-07T19:03:14.279Z,70.13
2022-09-07T19:05:50.298Z,70.26
2022-09-07T19:08:21.850Z,70.17
2022-09-07T19:10:57.308Z,69.80
2022-09-07T19:13:27.710Z,70.15
2022-09-07T19:16:02.940Z,70.65
2022-09-07T19:18:33.278Z,70.76
2022-09-07T19:21:06.897Z,71.35
2022-09-07T19:23:38.492Z,71.02
2022-09-07T19:26:11.444Z,70.75
2022-09-07T19:28:44.367Z,71.07
2022-09-07T19:31:16.882Z,71.16
2022-09-07T19:33:48.162Z,71.00
2022-09-07T19:36:21.758Z,70.78
2022-09-07T19:38:49.920Z,71.04
2022-09-07T19:41:23.926Z,71.72
2022-09-07T19:43:51.652Z,71.73
2022-09-07T19:46:26.129Z,71.67
2022-09-07T19:48:59.409Z,70.98
2022-09-07T19:51:36.725Z,71.11
2022-09-07T19:54:09.367Z,71.40
2022-09-07T19:56:41.025Z,71.42
2022-09-07T19:59:11.719Z,71.01
2022-09-07T20:01:46.535Z,71.25
2022-09-07T20:04:20.677Z,71.30
2022-09-07T20:06:54.397Z,71.74
2022-09-07T20:09:26.004Z,71.57
2022-09-07T20:11:55.858Z,71.37
2022-09-07T20:14:26.860Z,71.21
2022-09-07T20:17:00.040Z,71.15
2022-09-07T20:19:35.452Z,71.38
2022-09-07T20:22:06.514Z,70.91
2022-09-07T20:24:39.705Z,70.14
2022-09-07T20:27:12.545Z,70.63
2022-09-07T20:29:45.178Z,71.09
2022-09-07T20:32:17.383Z,70.96
2022-09-07T20:34:50.430Z,70.83
2022-09-07T20:37:26.222Z,70.34
2022-09-07T20:40:00.184Z,70.04
2022-09-07T20:42:33.348Z,70.12
2022-09-07T20:45:06.817Z,70.36
2022-09-07T20:47:40.525Z,69.20
2022-09-07T20:50:11.535Z,69.13
2022-09-07T20:52:45.338Z,69.01
2022-09-07T20:55:18.207Z,69.00
2022-09-07T20:57:46.090Z,69.36
2022-09-07T21:00:16.498Z,70.54
2022-09-07T21:02:49.835Z,70.77
2022-09-07T21:05:17.227Z,70.94
2022-09-07T21:07:50.110Z,70.98
2022-09-07T21:10:20.368Z,71.72
2022-09-07T21:12:50.051Z,70.88
2022-09-07T21:15:23.429Z,70.54
2022-09-07T21:17:53.639Z,71.04
2022-09-07T21:20:24.193Z,70.24
2022-09-07T21:22:59.719Z,70.04
2022-09-07T21:25:33.500Z,69.29
2022-09-07T21:28:04.263Z,69.37
2022-09-07T21:30:37.450Z,69.72
2022-09-07T21:33:10.985Z,69.72
2022-09-07T21:35:43.278Z,69.04
2022-09-07T21:38:18.817Z,69.07
2022-09-07T21:40:50.320Z,67.67
2022-09-07T21:43:21.003Z,67.68
2022-09-07T21:45:56.429Z,68.25
2022-09-07T21:48:27.035Z,68.86
2022-09-07T21:51:01.195Z,69.72
2022-09-07T21:53:34.637Z,69.74
2022-09-07T21:56:05.929Z,69.66
2022-09-07T21:58:36.385Z,70.64
2022-09-07T22:01:13.853Z,70.51
2022-09-07T22:03:46.914Z,70.59
2022-09-07T22:06:17.974Z,70.92
2022-09-07T22:08:49.234Z,70.05
2022-09-07T22:11:22.564Z,71.01
2022-09-07T22:14:02.873Z,71.71
2022-09-07T22:16:33.066Z,70.96
2022-09-07T22:19:05.100Z,71.81
2022-09-07T22:21:39.158Z,72.13
2022-09-07T22:24:10.652Z,72.21
2022-09-07T22:26:46.566Z,72.94
2022-09-07T22:29:20.193Z,72.97
2022-09-07T22:31:50.204Z,73.83
2022-09-07T22:34:23.131Z,73.79
2022-09-07T22:36:55.744Z,74.42
2022-09-07T22:39:28.883Z,73.53
2022-09-07T22:42:00.009Z,74.28
2022-09-07T22:44:32.981Z,74.07
2022-09-07T22:47:01.888Z,74.19
2022-09-07T22:49:32.052Z,74.40
2022-09-07T22:52:04.955Z,74.50
2022-09-07T22:54:35.768Z,74.88
2022-09-07T22:57:06.479Z,73.84
2022-09-07T22:59:44.231Z,73.59
2022-09-07T23:02:12.042Z,74.10
2022-09-07T23:04:45.018Z,73.33
2022-09-07T23:07:18.797Z,72.93
2022-09-07T23:09:48.888Z,73.49
2022-09-07T23:12:21.208Z,73.73
2022-09-07T23:14:55.465Z,73.38
2022-09-07T23:17:26.291Z,74.37
2022-09-07T23:19:56.589Z,74.82
2022-09-07T23:22:30.121Z,75.22
2022-09-07T23:25:00.169Z,74.29
2022-09-07T23:27:33.600Z,74.40
2022-09-07T23:30:07.375Z,74.04
2022-09-07T23:32:35.102Z,73.21
2022-09-07T23:35:08.686Z,73.52
2022-09-07T23:37:46.439Z,72.80
2022-09-07T23:40:19.820Z,73.13
2022-09-07T23:42:54.096Z,73.36
2022-09-07T23:45:26.820Z,73.81
2022-09-07T23:47:56.739Z,73.11
2022-09-07T23:50:29.343Z,73.71
2022-09-07T23:53:00.328Z,73.35
2022-09-07T23:55:31.096Z,73.93
2022-09-07T23:58:04.589Z,74.15
